sensor_id;sensor_type;location;lat;lon;timestamp;temperature;humidity
17687;DHT22;8962;52.538;13.266;2023-03-31T00:00:02;10.90;99.90
17687;DHT22;8962;52.538;13.266;2023-03-31T00:02:40;11.00;99.90
17687;DHT22;8962;52.538;13.266;2023-03-31T00:05:08;11.00;99.90
17687;DHT22;8962;52.538;13.266;2023-03-31T00:07:35;11.00;99.90
17687;DHT22;8962;52.538;13.266;2023-03-31T00:10:03;11.00;99.90
17687;DHT22;8962;52.538;13.266;2023-03-31T00:12:32;11.00;99.90
17687;DHT22;8962;52.538;13.266;2023-03-31T00:14:59;11.10;99.90
17687;DHT22;8962;52.538;13.266;2023-03-31T00:17:27;11.00;99.90
17687;DHT22;8962;52.538;13.266;2023-03-31T00:19:59;11.00;99.90
17687;DHT22;8962;52.538;13.266;2023-03-31T00:22:29;11.10;99.90
17687;DHT22;8962;52.538;13.266;2023-03-31T00:24:57;11.10;99.90
17687;DHT22;8962;52.538;13.266;2023-03-31T00:27:24;11.00;99.90
17687;DHT22;8962;52.538;13.266;2023-03-31T00:29:52;11.00;99.90
17687;DHT22;8962;52.538;13.266;2023-03-31T00:32:20;11.10;99.90
17687;DHT22;8962;52.538;13.266;2023-03-31T00:34:47;11.10;99.90
17687;DHT22;8962;52.538;13.266;2023-03-31T00:37:17;11.10;99.90
17687;DHT22;8962;52.538;13.266;2023-03-31T00:39:44;11.10;99.90
17687;DHT22;8962;52.538;13.266;2023-03-31T00:42:11;11.10;99.90
17687;DHT22;8962;52.538;13.266;2023-03-31T00:45:21;11.00;99.90
17687;DHT22;8962;52.538;13.266;2023-03-31T00:47:52;11.00;99.90
17687;DHT22;8962;52.538;13.266;2023-03-31T00:50:21;11.00;99.90
17687;DHT22;8962;52.538;13.266;2023-03-31T00:52:56;10.90;99.90
17687;DHT22;8962;52.538;13.266;2023-03-31T00:55:29;10.90;99.90
17687;DHT22;8962;52.538;13.266;2023-03-31T00:57:59;10.90;99.90
17687;DHT22;8962;52.538;13.266;2023-03-31T01:00:30;10.90;99.90
17687;DHT22;8962;52.538;13.266;2023-03-31T01:03:01;10.90;99.90
17687;DHT22;8962;52.538;13.266;2023-03-31T01:05:34;10.80;99.90
17687;DHT22;8962;52.538;13.266;2023-03-31T01:08:06;10.70;99.90
17687;DHT22;8962;52.538;13.266;2023-03-31T01:10:36;10.70;99.90
17687;DHT22;8962;52.538;13.266;2023-03-31T01:13:07;10.60;99.90
17687;DHT22;8962;52.538;13.266;2023-03-31T01:15:36;10.60;99.90
17687;DHT22;8962;52.538;13.266;2023-03-31T01:18:04;10.50;99.90
17687;DHT22;8962;52.538;13.266;2023-03-31T01:20:39;10.50;99.90
17687;DHT22;8962;52.538;13.266;2023-03-31T01:23:35;10.40;99.90
17687;DHT22;8962;52.538;13.266;2023-03-31T01:29:53;10.30;99.90
17687;DHT22;8962;52.538;13.266;2023-03-31T01:32:52;10.30;99.90
17687;DHT22;8962;52.538;13.266;2023-03-31T01:35:50;10.30;99.90
17687;DHT22;8962;52.538;13.266;2023-03-31T01:39:04;10.30;99.90
17687;DHT22;8962;52.538;13.266;2023-03-31T01:41:44;10.40;99.90
17687;DHT22;8962;52.538;13.266;2023-03-31T01:44:19;10.40;99.90
17687;DHT22;8962;52.538;13.266;2023-03-31T01:46:53;10.30;99.90
17687;DHT22;8962;52.538;13.266;2023-03-31T01:49:30;10.30;99.90
17687;DHT22;8962;52.538;13.266;2023-03-31T01:52:05;10.30;99.90
17687;DHT22;8962;52.538;13.266;2023-03-31T01:54:37;10.30;99.90
17687;DHT22;8962;52.538;13.266;2023-03-31T01:57:11;10.30;99.90
17687;DHT22;8962;52.538;13.266;2023-03-31T01:59:50;10.30;99.90
17687;DHT22;8962;52.538;13.266;2023-03-31T02:02:26;10.30;99.90
17687;DHT22;8962;52.538;13.266;2023-03-31T02:04:58;10.20;99.90
17687;DHT22;8962;52.538;13.266;2023-03-31T02:07:31;10.20;99.90
17687;DHT22;8962;52.538;13.266;2023-03-31T02:10:03;10.30;99.90
17687;DHT22;8962;52.538;13.266;2023-03-31T02:12:35;10.20;99.90
17687;DHT22;8962;52.538;13.266;2023-03-31T02:15:06;10.20;99.90
17687;DHT22;8962;52.538;13.266;2023-03-31T02:17:37;10.20;99.90
17687;DHT22;8962;52.538;13.266;2023-03-31T02:20:09;10.20;99.90
17687;DHT22;8962;52.538;13.266;2023-03-31T02:22:42;10.20;99.90
17687;DHT22;8962;52.538;13.266;2023-03-31T02:25:11;10.30;99.90
17687;DHT22;8962;52.538;13.266;2023-03-31T02:27:42;10.30;99.90
17687;DHT22;8962;52.538;13.266;2023-03-31T02:30:12;10.40;99.90
17687;DHT22;8962;52.538;13.266;2023-03-31T02:32:41;10.50;99.90
17687;DHT22;8962;52.538;13.266;2023-03-31T02:35:11;10.60;99.90
17687;DHT22;8962;52.538;13.266;2023-03-31T02:37:39;10.50;99.90
17687;DHT22;8962;52.538;13.266;2023-03-31T02:40:10;10.60;99.90
17687;DHT22;8962;52.538;13.266;2023-03-31T02:42:41;10.60;99.90
17687;DHT22;8962;52.538;13.266;2023-03-31T02:45:38;10.60;99.90
17687;DHT22;8962;52.538;13.266;2023-03-31T02:48:10;10.60;99.90
17687;DHT22;8962;52.538;13.266;2023-03-31T02:50:54;10.60;99.90
17687;DHT22;8962;52.538;13.266;2023-03-31T02:53:33;10.60;99.90
17687;DHT22;8962;52.538;13.266;2023-03-31T02:56:18;10.70;99.90
17687;DHT22;8962;52.538;13.266;2023-03-31T02:59:13;10.60;99.90
17687;DHT22;8962;52.538;13.266;2023-03-31T03:01:50;10.70;99.90
17687;DHT22;8962;52.538;13.266;2023-03-31T03:04:36;10.70;99.90
17687;DHT22;8962;52.538;13.266;2023-03-31T03:07:15;10.70;99.90
17687;DHT22;8962;52.538;13.266;2023-03-31T03:09:55;10.80;99.90
17687;DHT22;8962;52.538;13.266;2023-03-31T03:12:32;10.70;99.90
17687;DHT22;8962;52.538;13.266;2023-03-31T03:15:07;10.70;99.90
17687;DHT22;8962;52.538;13.266;2023-03-31T03:17:39;10.80;99.90
17687;DHT22;8962;52.538;13.266;2023-03-31T03:20:08;10.70;99.90
17687;DHT22;8962;52.538;13.266;2023-03-31T03:22:36;10.80;99.90
17687;DHT22;8962;52.538;13.266;2023-03-31T03:25:06;10.80;99.90
17687;DHT22;8962;52.538;13.266;2023-03-31T03:27:37;10.80;99.90
17687;DHT22;8962;52.538;13.266;2023-03-31T03:30:09;10.80;99.90
17687;DHT22;8962;52.538;13.266;2023-03-31T03:32:37;10.90;99.90
17687;DHT22;8962;52.538;13.266;2023-03-31T03:35:06;10.90;99.90
17687;DHT22;8962;52.538;13.266;2023-03-31T03:37:33;10.90;99.90
17687;DHT22;8962;52.538;13.266;2023-03-31T03:40:01;10.90;99.90
17687;DHT22;8962;52.538;13.266;2023-03-31T03:42:28;10.90;99.90
17687;DHT22;8962;52.538;13.266;2023-03-31T03:44:55;10.90;99.90
17687;DHT22;8962;52.538;13.266;2023-03-31T03:47:24;10.90;99.90
17687;DHT22;8962;52.538;13.266;2023-03-31T03:49:52;10.90;99.90
17687;DHT22;8962;52.538;13.266;2023-03-31T03:52:19;10.90;99.90
17687;DHT22;8962;52.538;13.266;2023-03-31T03:54:46;10.90;99.90
17687;DHT22;8962;52.538;13.266;2023-03-31T03:57:14;10.90;99.90
17687;DHT22;8962;52.538;13.266;2023-03-31T03:59:41;10.90;99.90
17687;DHT22;8962;52.538;13.266;2023-03-31T04:02:08;10.90;99.90
17687;DHT22;8962;52.538;13.266;2023-03-31T04:04:38;10.90;99.90
17687;DHT22;8962;52.538;13.266;2023-03-31T04:07:05;10.90;99.90
17687;DHT22;8962;52.538;13.266;2023-03-31T04:09:32;10.90;99.90
17687;DHT22;8962;52.538;13.266;2023-03-31T04:12:02;10.90;99.90
17687;DHT22;8962;52.538;13.266;2023-03-31T04:14:29;10.90;99.90
17687;DHT22;8962;52.538;13.266;2023-03-31T04:16:56;10.80;99.90
17687;DHT22;8962;52.538;13.266;2023-03-31T04:19:23;10.80;99.90
17687;DHT22;8962;52.538;13.266;2023-03-31T04:21:53;10.70;99.90
17687;DHT22;8962;52.538;13.266;2023-03-31T04:24:27;10.70;99.90
17687;DHT22;8962;52.538;13.266;2023-03-31T04:26:58;10.70;99.90
17687;DHT22;8962;52.538;13.266;2023-03-31T04:29:25;10.80;99.90
17687;DHT22;8962;52.538;13.266;2023-03-31T04:31:53;10.80;99.90
17687;DHT22;8962;52.538;13.266;2023-03-31T04:34:25;10.80;99.90
17687;DHT22;8962;52.538;13.266;2023-03-31T04:37:01;10.80;99.90
17687;DHT22;8962;52.538;13.266;2023-03-31T04:39:29;10.80;99.90
17687;DHT22;8962;52.538;13.266;2023-03-31T04:41:57;10.80;99.90
17687;DHT22;8962;52.538;13.266;2023-03-31T04:44:25;10.80;99.90
17687;DHT22;8962;52.538;13.266;2023-03-31T04:46:53;10.80;99.90
17687;DHT22;8962;52.538;13.266;2023-03-31T04:49:20;10.80;99.90
17687;DHT22;8962;52.538;13.266;2023-03-31T04:51:47;10.80;99.90
17687;DHT22;8962;52.538;13.266;2023-03-31T04:54:17;10.70;99.90
17687;DHT22;8962;52.538;13.266;2023-03-31T04:56:47;10.70;99.90
17687;DHT22;8962;52.538;13.266;2023-03-31T04:59:15;10.70;99.90
17687;DHT22;8962;52.538;13.266;2023-03-31T05:01:45;10.70;99.90
17687;DHT22;8962;52.538;13.266;2023-03-31T05:04:12;10.70;99.90
17687;DHT22;8962;52.538;13.266;2023-03-31T05:06:41;10.70;99.90
17687;DHT22;8962;52.538;13.266;2023-03-31T05:09:08;10.60;99.90
17687;DHT22;8962;52.538;13.266;2023-03-31T05:11:37;10.60;99.90
17687;DHT22;8962;52.538;13.266;2023-03-31T05:14:04;10.50;99.90
17687;DHT22;8962;52.538;13.266;2023-03-31T05:16:31;10.40;99.90
17687;DHT22;8962;52.538;13.266;2023-03-31T05:18:59;10.40;99.90
17687;DHT22;8962;52.538;13.266;2023-03-31T05:21:26;10.30;99.90
17687;DHT22;8962;52.538;13.266;2023-03-31T05:23:55;10.30;99.90
17687;DHT22;8962;52.538;13.266;2023-03-31T05:26:24;10.30;99.90
17687;DHT22;8962;52.538;13.266;2023-03-31T05:28:53;10.30;99.90
17687;DHT22;8962;52.538;13.266;2023-03-31T05:31:21;10.30;99.90
17687;DHT22;8962;52.538;13.266;2023-03-31T05:33:48;10.30;99.90
17687;DHT22;8962;52.538;13.266;2023-03-31T05:36:18;10.30;99.90
17687;DHT22;8962;52.538;13.266;2023-03-31T05:38:49;10.40;99.90
17687;DHT22;8962;52.538;13.266;2023-03-31T05:41:17;10.40;99.90
17687;DHT22;8962;52.538;13.266;2023-03-31T05:43:44;10.40;99.90
17687;DHT22;8962;52.538;13.266;2023-03-31T05:46:13;10.50;99.90
17687;DHT22;8962;52.538;13.266;2023-03-31T05:48:40;10.60;99.90
17687;DHT22;8962;52.538;13.266;2023-03-31T05:51:08;10.60;99.90
17687;DHT22;8962;52.538;13.266;2023-03-31T05:53:37;10.70;99.90
17687;DHT22;8962;52.538;13.266;2023-03-31T05:56:06;10.70;99.90
17687;DHT22;8962;52.538;13.266;2023-03-31T05:58:35;10.80;99.90
17687;DHT22;8962;52.538;13.266;2023-03-31T06:01:04;10.80;99.90
17687;DHT22;8962;52.538;13.266;2023-03-31T06:03:34;10.90;99.90
17687;DHT22;8962;52.538;13.266;2023-03-31T06:06:03;10.90;99.90
17687;DHT22;8962;52.538;13.266;2023-03-31T06:08:31;10.90;99.90
17687;DHT22;8962;52.538;13.266;2023-03-31T06:10:58;10.90;99.90
17687;DHT22;8962;52.538;13.266;2023-03-31T06:13:25;10.90;99.90
17687;DHT22;8962;52.538;13.266;2023-03-31T06:15:53;10.90;99.90
17687;DHT22;8962;52.538;13.266;2023-03-31T06:18:21;10.80;99.90
17687;DHT22;8962;52.538;13.266;2023-03-31T06:20:50;10.80;99.90
17687;DHT22;8962;52.538;13.266;2023-03-31T06:23:17;10.90;99.90
17687;DHT22;8962;52.538;13.266;2023-03-31T06:25:46;11.00;99.90
17687;DHT22;8962;52.538;13.266;2023-03-31T06:28:14;11.20;99.90
17687;DHT22;8962;52.538;13.266;2023-03-31T06:30:41;11.20;99.90
17687;DHT22;8962;52.538;13.266;2023-03-31T06:33:08;11.20;99.90
17687;DHT22;8962;52.538;13.266;2023-03-31T06:35:37;11.20;99.90
17687;DHT22;8962;52.538;13.266;2023-03-31T06:38:06;11.20;99.90
17687;DHT22;8962;52.538;13.266;2023-03-31T06:40:33;11.20;99.90
17687;DHT22;8962;52.538;13.266;2023-03-31T06:43:01;11.20;99.90
17687;DHT22;8962;52.538;13.266;2023-03-31T06:45:28;11.30;99.90
17687;DHT22;8962;52.538;13.266;2023-03-31T06:47:55;11.30;99.90
17687;DHT22;8962;52.538;13.266;2023-03-31T06:50:22;11.40;99.90
17687;DHT22;8962;52.538;13.266;2023-03-31T06:52:50;11.50;99.90
17687;DHT22;8962;52.538;13.266;2023-03-31T06:55:21;11.50;99.90
17687;DHT22;8962;52.538;13.266;2023-03-31T06:57:48;11.60;99.90
17687;DHT22;8962;52.538;13.266;2023-03-31T07:00:16;11.70;99.90
17687;DHT22;8962;52.538;13.266;2023-03-31T07:02:44;11.70;99.90
17687;DHT22;8962;52.538;13.266;2023-03-31T07:05:11;12.00;99.90
17687;DHT22;8962;52.538;13.266;2023-03-31T07:07:39;12.10;99.90
17687;DHT22;8962;52.538;13.266;2023-03-31T07:10:10;12.30;99.90
17687;DHT22;8962;52.538;13.266;2023-03-31T07:12:38;12.30;99.90
17687;DHT22;8962;52.538;13.266;2023-03-31T07:15:07;12.40;99.90
17687;DHT22;8962;52.538;13.266;2023-03-31T07:17:35;12.60;99.90
17687;DHT22;8962;52.538;13.266;2023-03-31T07:20:07;12.70;99.90
17687;DHT22;8962;52.538;13.266;2023-03-31T07:22:37;12.90;99.90
17687;DHT22;8962;52.538;13.266;2023-03-31T07:25:06;13.10;99.90
17687;DHT22;8962;52.538;13.266;2023-03-31T07:27:34;13.20;99.90
17687;DHT22;8962;52.538;13.266;2023-03-31T07:30:04;13.30;99.90
17687;DHT22;8962;52.538;13.266;2023-03-31T07:32:31;13.20;99.90
17687;DHT22;8962;52.538;13.266;2023-03-31T07:35:00;13.20;99.90
17687;DHT22;8962;52.538;13.266;2023-03-31T07:37:27;13.30;99.90
17687;DHT22;8962;52.538;13.266;2023-03-31T07:39:55;13.20;99.90
17687;DHT22;8962;52.538;13.266;2023-03-31T07:42:23;13.20;99.90
17687;DHT22;8962;52.538;13.266;2023-03-31T07:44:50;13.20;99.90
17687;DHT22;8962;52.538;13.266;2023-03-31T07:47:21;13.30;99.90
17687;DHT22;8962;52.538;13.266;2023-03-31T07:49:50;13.40;99.90
17687;DHT22;8962;52.538;13.266;2023-03-31T07:52:18;13.50;99.90
17687;DHT22;8962;52.538;13.266;2023-03-31T07:54:46;13.70;99.90
17687;DHT22;8962;52.538;13.266;2023-03-31T07:57:13;14.00;99.90
17687;DHT22;8962;52.538;13.266;2023-03-31T07:59:42;14.30;99.90
17687;DHT22;8962;52.538;13.266;2023-03-31T08:02:10;14.40;99.90
17687;DHT22;8962;52.538;13.266;2023-03-31T08:04:39;14.50;99.90
17687;DHT22;8962;52.538;13.266;2023-03-31T08:07:08;14.50;99.90
17687;DHT22;8962;52.538;13.266;2023-03-31T08:09:36;14.60;99.90
17687;DHT22;8962;52.538;13.266;2023-03-31T08:12:04;14.80;99.90
17687;DHT22;8962;52.538;13.266;2023-03-31T08:14:32;14.70;99.90
17687;DHT22;8962;52.538;13.266;2023-03-31T08:16:59;14.60;99.90
17687;DHT22;8962;52.538;13.266;2023-03-31T08:19:26;14.70;99.90
17687;DHT22;8962;52.538;13.266;2023-03-31T08:21:57;14.80;99.90
17687;DHT22;8962;52.538;13.266;2023-03-31T08:24:24;14.90;99.90
17687;DHT22;8962;52.538;13.266;2023-03-31T08:26:51;15.00;99.90
17687;DHT22;8962;52.538;13.266;2023-03-31T08:29:18;15.30;99.90
17687;DHT22;8962;52.538;13.266;2023-03-31T08:31:46;15.40;99.90
17687;DHT22;8962;52.538;13.266;2023-03-31T08:34:13;15.50;99.90
17687;DHT22;8962;52.538;13.266;2023-03-31T08:36:40;15.60;99.90
17687;DHT22;8962;52.538;13.266;2023-03-31T08:39:09;15.80;99.90
17687;DHT22;8962;52.538;13.266;2023-03-31T08:41:52;16.00;99.90
17687;DHT22;8962;52.538;13.266;2023-03-31T08:44:25;16.20;99.90
17687;DHT22;8962;52.538;13.266;2023-03-31T08:46:54;16.20;99.90
17687;DHT22;8962;52.538;13.266;2023-03-31T08:49:23;15.90;99.90
17687;DHT22;8962;52.538;13.266;2023-03-31T08:51:53;16.00;99.90
17687;DHT22;8962;52.538;13.266;2023-03-31T08:54:31;16.10;99.90
17687;DHT22;8962;52.538;13.266;2023-03-31T08:57:01;16.00;99.90
17687;DHT22;8962;52.538;13.266;2023-03-31T08:59:31;16.00;99.90
17687;DHT22;8962;52.538;13.266;2023-03-31T09:02:09;16.20;99.90
17687;DHT22;8962;52.538;13.266;2023-03-31T09:05:13;16.20;99.90
17687;DHT22;8962;52.538;13.266;2023-03-31T09:08:00;16.20;99.90
17687;DHT22;8962;52.538;13.266;2023-03-31T09:10:40;16.40;99.90
17687;DHT22;8962;52.538;13.266;2023-03-31T09:13:44;16.50;99.90
17687;DHT22;8962;52.538;13.266;2023-03-31T09:16:13;16.70;99.90
17687;DHT22;8962;52.538;13.266;2023-03-31T09:18:42;16.80;99.90
17687;DHT22;8962;52.538;13.266;2023-03-31T09:21:17;16.70;99.90
17687;DHT22;8962;52.538;13.266;2023-03-31T09:23:51;16.60;99.90
17687;DHT22;8962;52.538;13.266;2023-03-31T09:26:29;16.30;99.90
17687;DHT22;8962;52.538;13.266;2023-03-31T09:28:59;16.30;99.90
17687;DHT22;8962;52.538;13.266;2023-03-31T09:31:27;16.50;99.90
17687;DHT22;8962;52.538;13.266;2023-03-31T09:33:59;16.50;99.90
17687;DHT22;8962;52.538;13.266;2023-03-31T09:36:27;16.50;99.90
17687;DHT22;8962;52.538;13.266;2023-03-31T09:38:55;16.50;99.90
17687;DHT22;8962;52.538;13.266;2023-03-31T09:41:24;16.30;99.90
17687;DHT22;8962;52.538;13.266;2023-03-31T09:43:51;16.20;99.90
17687;DHT22;8962;52.538;13.266;2023-03-31T09:46:25;16.00;99.90
17687;DHT22;8962;52.538;13.266;2023-03-31T09:48:58;16.00;99.90
17687;DHT22;8962;52.538;13.266;2023-03-31T09:51:31;16.00;99.90
17687;DHT22;8962;52.538;13.266;2023-03-31T09:54:03;15.80;99.90
17687;DHT22;8962;52.538;13.266;2023-03-31T09:56:50;15.90;99.90
17687;DHT22;8962;52.538;13.266;2023-03-31T09:59:19;15.90;99.90
17687;DHT22;8962;52.538;13.266;2023-03-31T10:01:49;15.80;99.90
17687;DHT22;8962;52.538;13.266;2023-03-31T10:04:21;15.50;99.90
17687;DHT22;8962;52.538;13.266;2023-03-31T10:06:49;15.30;99.90
17687;DHT22;8962;52.538;13.266;2023-03-31T10:09:17;15.20;99.90
17687;DHT22;8962;52.538;13.266;2023-03-31T10:11:55;15.10;99.90
17687;DHT22;8962;52.538;13.266;2023-03-31T10:14:33;15.00;99.90
17687;DHT22;8962;52.538;13.266;2023-03-31T10:17:05;15.00;99.90
17687;DHT22;8962;52.538;13.266;2023-03-31T10:19:35;14.80;99.90
17687;DHT22;8962;52.538;13.266;2023-03-31T10:22:08;14.80;99.90
17687;DHT22;8962;52.538;13.266;2023-03-31T10:24:43;14.70;99.90
17687;DHT22;8962;52.538;13.266;2023-03-31T10:27:19;14.60;99.90
17687;DHT22;8962;52.538;13.266;2023-03-31T10:29:51;14.60;99.90
17687;DHT22;8962;52.538;13.266;2023-03-31T10:32:22;14.60;99.90
17687;DHT22;8962;52.538;13.266;2023-03-31T10:34:54;14.60;99.90
17687;DHT22;8962;52.538;13.266;2023-03-31T10:37:23;14.70;99.90
17687;DHT22;8962;52.538;13.266;2023-03-31T10:39:56;14.80;99.90
17687;DHT22;8962;52.538;13.266;2023-03-31T10:42:26;15.00;99.90
17687;DHT22;8962;52.538;13.266;2023-03-31T10:45:11;15.00;99.90
17687;DHT22;8962;52.538;13.266;2023-03-31T10:47:39;15.10;99.90
17687;DHT22;8962;52.538;13.266;2023-03-31T10:50:13;14.90;99.90
17687;DHT22;8962;52.538;13.266;2023-03-31T10:52:47;14.90;99.90
17687;DHT22;8962;52.538;13.266;2023-03-31T10:55:25;14.90;99.90
17687;DHT22;8962;52.538;13.266;2023-03-31T10:58:01;14.80;99.90
17687;DHT22;8962;52.538;13.266;2023-03-31T11:00:31;14.90;99.90
17687;DHT22;8962;52.538;13.266;2023-03-31T11:03:30;15.00;99.90
17687;DHT22;8962;52.538;13.266;2023-03-31T11:06:04;15.10;99.90
17687;DHT22;8962;52.538;13.266;2023-03-31T11:08:42;15.40;99.90
17687;DHT22;8962;52.538;13.266;2023-03-31T11:11:24;15.80;99.90
17687;DHT22;8962;52.538;13.266;2023-03-31T11:14:02;15.90;99.90
17687;DHT22;8962;52.538;13.266;2023-03-31T11:16:38;16.00;99.90
17687;DHT22;8962;52.538;13.266;2023-03-31T11:19:15;15.80;99.90
17687;DHT22;8962;52.538;13.266;2023-03-31T11:21:54;15.90;99.90
17687;DHT22;8962;52.538;13.266;2023-03-31T11:24:32;16.20;99.90
17687;DHT22;8962;52.538;13.266;2023-03-31T11:27:13;16.70;99.90
17687;DHT22;8962;52.538;13.266;2023-03-31T11:29:51;17.40;99.90
17687;DHT22;8962;52.538;13.266;2023-03-31T11:32:36;17.70;99.90
17687;DHT22;8962;52.538;13.266;2023-03-31T11:35:25;18.00;99.90
17687;DHT22;8962;52.538;13.266;2023-03-31T11:38:10;18.30;99.90
17687;DHT22;8962;52.538;13.266;2023-03-31T11:43:25;18.20;99.90
17687;DHT22;8962;52.538;13.266;2023-03-31T11:45:59;17.60;99.90
17687;DHT22;8962;52.538;13.266;2023-03-31T11:48:32;17.30;99.90
17687;DHT22;8962;52.538;13.266;2023-03-31T11:51:02;16.90;99.90
17687;DHT22;8962;52.538;13.266;2023-03-31T11:53:34;16.60;99.90
17687;DHT22;8962;52.538;13.266;2023-03-31T11:56:04;16.60;99.90
17687;DHT22;8962;52.538;13.266;2023-03-31T11:58:36;16.30;99.90
17687;DHT22;8962;52.538;13.266;2023-03-31T12:01:15;16.10;99.90
17687;DHT22;8962;52.538;13.266;2023-03-31T12:03:52;15.80;99.90
17687;DHT22;8962;52.538;13.266;2023-03-31T12:06:24;15.30;99.90
17687;DHT22;8962;52.538;13.266;2023-03-31T12:09:03;14.90;99.90
17687;DHT22;8962;52.538;13.266;2023-03-31T12:11:35;14.50;99.90
17687;DHT22;8962;52.538;13.266;2023-03-31T12:14:12;13.90;99.90
17687;DHT22;8962;52.538;13.266;2023-03-31T12:16:44;13.40;99.90
17687;DHT22;8962;52.538;13.266;2023-03-31T12:19:16;13.20;99.90
17687;DHT22;8962;52.538;13.266;2023-03-31T12:21:50;13.20;99.90
17687;DHT22;8962;52.538;13.266;2023-03-31T12:24:19;13.30;99.90
17687;DHT22;8962;52.538;13.266;2023-03-31T12:26:54;13.50;99.90
17687;DHT22;8962;52.538;13.266;2023-03-31T12:29:28;13.70;99.90
17687;DHT22;8962;52.538;13.266;2023-03-31T12:32:02;13.90;99.90
17687;DHT22;8962;52.538;13.266;2023-03-31T12:34:35;14.00;99.90
17687;DHT22;8962;52.538;13.266;2023-03-31T12:40:09;14.80;99.90
17687;DHT22;8962;52.538;13.266;2023-03-31T12:42:58;15.40;99.90
17687;DHT22;8962;52.538;13.266;2023-03-31T12:45:49;15.60;99.90
17687;DHT22;8962;52.538;13.266;2023-03-31T12:48:45;15.60;99.90
17687;DHT22;8962;52.538;13.266;2023-03-31T12:51:36;15.30;99.90
17687;DHT22;8962;52.538;13.266;2023-03-31T12:54:25;15.20;99.90
17687;DHT22;8962;52.538;13.266;2023-03-31T12:57:06;15.00;99.90
17687;DHT22;8962;52.538;13.266;2023-03-31T12:59:40;14.80;99.90
17687;DHT22;8962;52.538;13.266;2023-03-31T13:02:21;14.60;99.90
17687;DHT22;8962;52.538;13.266;2023-03-31T13:04:50;14.30;99.90
17687;DHT22;8962;52.538;13.266;2023-03-31T13:07:36;14.00;99.90
17687;DHT22;8962;52.538;13.266;2023-03-31T13:13:02;13.10;99.90
17687;DHT22;8962;52.538;13.266;2023-03-31T13:15:30;13.00;99.90
17687;DHT22;8962;52.538;13.266;2023-03-31T13:17:59;12.90;99.90
17687;DHT22;8962;52.538;13.266;2023-03-31T13:20:34;12.70;99.90
17687;DHT22;8962;52.538;13.266;2023-03-31T13:23:14;12.60;99.90
17687;DHT22;8962;52.538;13.266;2023-03-31T13:25:49;12.40;99.90
17687;DHT22;8962;52.538;13.266;2023-03-31T13:28:38;12.40;99.90
17687;DHT22;8962;52.538;13.266;2023-03-31T13:31:08;12.20;99.90
17687;DHT22;8962;52.538;13.266;2023-03-31T13:33:52;12.20;99.90
17687;DHT22;8962;52.538;13.266;2023-03-31T13:36:48;12.10;99.90
17687;DHT22;8962;52.538;13.266;2023-03-31T13:46:03;11.80;99.90
17687;DHT22;8962;52.538;13.266;2023-03-31T13:48:45;11.80;99.90
17687;DHT22;8962;52.538;13.266;2023-03-31T13:51:31;11.70;99.90
17687;DHT22;8962;52.538;13.266;2023-03-31T13:54:43;11.80;99.90
17687;DHT22;8962;52.538;13.266;2023-03-31T14:00:31;11.70;99.90
17687;DHT22;8962;52.538;13.266;2023-03-31T14:06:16;11.50;99.90
17687;DHT22;8962;52.538;13.266;2023-03-31T14:08:50;11.40;99.90
17687;DHT22;8962;52.538;13.266;2023-03-31T14:11:22;11.40;99.90
17687;DHT22;8962;52.538;13.266;2023-03-31T14:14:01;11.30;99.90
17687;DHT22;8962;52.538;13.266;2023-03-31T14:16:31;11.10;99.90
17687;DHT22;8962;52.538;13.266;2023-03-31T14:21:50;11.10;99.90
17687;DHT22;8962;52.538;13.266;2023-03-31T14:24:28;11.10;99.90
17687;DHT22;8962;52.538;13.266;2023-03-31T14:27:01;11.20;99.90
17687;DHT22;8962;52.538;13.266;2023-03-31T14:29:34;11.30;99.90
17687;DHT22;8962;52.538;13.266;2023-03-31T14:32:09;11.30;99.90
17687;DHT22;8962;52.538;13.266;2023-03-31T14:34:48;11.30;99.90
17687;DHT22;8962;52.538;13.266;2023-03-31T14:37:19;11.30;99.90
17687;DHT22;8962;52.538;13.266;2023-03-31T14:39:50;11.40;99.90
17687;DHT22;8962;52.538;13.266;2023-03-31T14:42:23;11.30;99.90
17687;DHT22;8962;52.538;13.266;2023-03-31T14:44:55;11.30;99.90
17687;DHT22;8962;52.538;13.266;2023-03-31T14:47:23;11.30;99.90
17687;DHT22;8962;52.538;13.266;2023-03-31T14:49:58;11.30;99.90
17687;DHT22;8962;52.538;13.266;2023-03-31T14:52:29;11.20;99.90
17687;DHT22;8962;52.538;13.266;2023-03-31T14:54:59;11.20;99.90
17687;DHT22;8962;52.538;13.266;2023-03-31T14:57:29;11.20;99.90
17687;DHT22;8962;52.538;13.266;2023-03-31T14:59:57;11.20;99.90
17687;DHT22;8962;52.538;13.266;2023-03-31T15:02:31;11.10;99.90
17687;DHT22;8962;52.538;13.266;2023-03-31T15:05:02;11.10;99.90
17687;DHT22;8962;52.538;13.266;2023-03-31T15:07:32;11.00;99.90
17687;DHT22;8962;52.538;13.266;2023-03-31T15:10:02;11.00;99.90
17687;DHT22;8962;52.538;13.266;2023-03-31T15:12:29;11.00;99.90
17687;DHT22;8962;52.538;13.266;2023-03-31T15:15:02;11.00;99.90
17687;DHT22;8962;52.538;13.266;2023-03-31T15:17:31;11.00;99.90
17687;DHT22;8962;52.538;13.266;2023-03-31T15:20:23;11.00;99.90
17687;DHT22;8962;52.538;13.266;2023-03-31T15:22:53;10.90;99.90
17687;DHT22;8962;52.538;13.266;2023-03-31T15:25:23;10.90;99.90
17687;DHT22;8962;52.538;13.266;2023-03-31T15:27:54;11.00;99.90
17687;DHT22;8962;52.538;13.266;2023-03-31T15:30:24;10.90;99.90
17687;DHT22;8962;52.538;13.266;2023-03-31T15:32:53;10.90;99.90
17687;DHT22;8962;52.538;13.266;2023-03-31T15:35:23;11.00;99.90
17687;DHT22;8962;52.538;13.266;2023-03-31T15:37:54;11.00;99.90
17687;DHT22;8962;52.538;13.266;2023-03-31T15:40:25;11.00;99.90
17687;DHT22;8962;52.538;13.266;2023-03-31T15:42:55;11.00;99.90
17687;DHT22;8962;52.538;13.266;2023-03-31T15:48:21;11.10;99.90
17687;DHT22;8962;52.538;13.266;2023-03-31T15:50:49;11.10;99.90
17687;DHT22;8962;52.538;13.266;2023-03-31T15:53:25;11.10;99.90
17687;DHT22;8962;52.538;13.266;2023-03-31T15:55:55;11.20;99.90
17687;DHT22;8962;52.538;13.266;2023-03-31T15:58:45;11.10;99.90
17687;DHT22;8962;52.538;13.266;2023-03-31T16:01:14;11.10;99.90
17687;DHT22;8962;52.538;13.266;2023-03-31T16:03:43;11.10;99.90
17687;DHT22;8962;52.538;13.266;2023-03-31T16:06:19;11.10;99.90
17687;DHT22;8962;52.538;13.266;2023-03-31T16:08:51;11.10;99.90
17687;DHT22;8962;52.538;13.266;2023-03-31T16:11:23;11.20;99.90
17687;DHT22;8962;52.538;13.266;2023-03-31T16:13:55;11.20;99.90
17687;DHT22;8962;52.538;13.266;2023-03-31T16:16:24;11.20;99.90
17687;DHT22;8962;52.538;13.266;2023-03-31T16:18:54;11.20;99.90
17687;DHT22;8962;52.538;13.266;2023-03-31T16:21:34;11.20;99.90
17687;DHT22;8962;52.538;13.266;2023-03-31T16:24:02;11.20;99.90
17687;DHT22;8962;52.538;13.266;2023-03-31T16:26:31;11.20;99.90
17687;DHT22;8962;52.538;13.266;2023-03-31T16:28:59;11.20;99.90
17687;DHT22;8962;52.538;13.266;2023-03-31T16:31:30;11.20;99.90
17687;DHT22;8962;52.538;13.266;2023-03-31T16:33:59;11.20;99.90